createdAt,value
2019-06-15T00:00:21.930Z,91.42
2019-06-15T00:01:21.724Z,93.05
2019-06-15T00:02:21.847Z,93.44
2019-06-15T00:03:21.586Z,94.30
2019-06-15T00:04:21.655Z,93.91
2019-06-15T00:05:21.436Z,94.68
2019-06-15T00:06:21.566Z,95.07
2019-06-15T00:07:21.291Z,94.88
2019-06-15T00:08:21.372Z,94.59
2019-06-15T00:09:21.144Z,92.86
2019-06-15T00:10:21.300Z,93.63
2019-06-15T00:11:20.999Z,93.24
2019-06-15T00:12:21.094Z,92.57
2019-06-15T00:13:20.863Z,91.99
2019-06-15T00:14:21.004Z,92.71
2019-06-15T00:15:20.712Z,92.57
2019-06-15T00:16:20.811Z,91.66
2019-06-15T00:17:20.568Z,91.27
2019-06-15T00:18:20.648Z,91.94
2019-06-15T00:19:20.427Z,92.91
2019-06-15T00:20:20.538Z,91.90
2019-06-15T00:21:20.277Z,92.61
2019-06-15T00:22:20.357Z,92.86
2019-06-15T00:23:20.144Z,92.67
2019-06-15T00:24:32.268Z,93.34
2019-06-15T00:25:19.987Z,94.40
2019-06-15T00:26:20.065Z,95.40
2019-06-15T00:27:19.841Z,96.27
2019-06-15T00:28:19.978Z,97.91
2019-06-15T00:29:19.708Z,97.62
2019-06-15T00:30:19.783Z,97.81
2019-06-15T00:31:19.553Z,97.91
2019-06-15T00:32:19.707Z,98.10
2019-06-15T00:33:19.411Z,97.42
2019-06-15T00:34:19.501Z,97.42
2019-06-15T00:35:19.264Z,98.39
2019-06-15T00:36:19.418Z,97.96
2019-06-15T00:37:19.113Z,97.67
2019-06-15T00:38:19.233Z,97.04
2019-06-15T00:39:18.986Z,96.61
2019-06-15T00:40:19.036Z,96.51
2019-06-15T00:41:18.827Z,96.90
2019-06-15T00:42:18.947Z,97.19
2019-06-15T00:43:18.683Z,96.13
2019-06-15T00:44:18.751Z,95.17
2019-06-15T00:45:18.540Z,95.17
2019-06-15T00:46:18.667Z,95.26
2019-06-15T00:47:18.394Z,95.26
2019-06-15T00:48:18.473Z,95.07
2019-06-15T00:49:18.240Z,95.17
2019-06-15T00:50:18.387Z,95.36
2019-06-15T00:51:18.108Z,94.78
2019-06-15T00:52:18.193Z,95.17
2019-06-15T00:53:17.968Z,95.45
2019-06-15T00:54:18.124Z,95.26
2019-06-15T00:55:17.808Z,94.88
2019-06-15T00:56:17.816Z,95.17
2019-06-15T00:57:17.666Z,96.70
2019-06-15T00:58:17.730Z,97.67
2019-06-15T00:59:17.527Z,98.24
2019-06-15T01:00:17.641Z,99.01
2019-06-15T01:01:17.372Z,99.78
2019-06-15T01:02:17.460Z,99.68
2019-06-15T01:03:17.228Z,98.96
2019-06-15T01:04:17.357Z,99.15
2019-06-15T01:05:17.081Z,99.06
2019-06-15T01:06:17.170Z,99.73
2019-06-15T01:07:16.941Z,99.83
2019-06-15T01:08:16.984Z,99.25
2019-06-15T01:09:16.799Z,99.44
2019-06-15T01:10:16.789Z,99.99
2019-06-15T01:11:16.654Z,99.99
2019-06-15T01:12:16.698Z,99.54
2019-06-15T01:13:16.504Z,98.10
2019-06-15T01:14:16.510Z,99.15
2019-06-15T01:15:16.360Z,98.96
2019-06-15T01:16:16.416Z,99.73
2019-06-15T01:17:16.216Z,99.99
2019-06-15T01:18:16.236Z,99.99
2019-06-15T01:19:16.070Z,99.99
2019-06-15T01:20:16.032Z,99.73
2019-06-15T01:21:15.921Z,98.96
2019-06-15T01:22:15.944Z,98.48
2019-06-15T01:23:15.773Z,98.29
2019-06-15T01:24:15.753Z,97.91
2019-06-15T01:25:15.637Z,97.33
2019-06-15T01:26:15.667Z,96.37
2019-06-15T01:27:15.488Z,95.89
2019-06-15T01:28:15.479Z,95.31
2019-06-15T01:29:15.345Z,95.79
2019-06-15T01:30:15.387Z,95.03
2019-06-15T01:31:15.191Z,94.73
2019-06-15T01:32:15.193Z,95.12
2019-06-15T01:33:15.067Z,95.40
2019-06-15T01:34:15.111Z,94.83
2019-06-15T01:35:14.897Z,94.83
2019-06-15T01:36:14.922Z,95.50
2019-06-15T01:37:14.759Z,97.33
2019-06-15T01:38:14.733Z,98.48
2019-06-15T01:39:14.616Z,99.87
2019-06-15T01:40:14.638Z,99.99
2019-06-15T01:41:14.476Z,99.99
2019-06-15T01:42:14.448Z,99.99
2019-06-15T01:43:14.330Z,99.99
2019-06-15T01:44:14.359Z,99.99
2019-06-15T01:45:14.179Z,99.99
2019-06-15T01:46:14.177Z,99.99
2019-06-15T01:47:14.031Z,99.99
2019-06-15T01:48:14.082Z,99.99
2019-06-15T01:49:13.883Z,99.99
2019-06-15T01:50:13.887Z,99.99
2019-06-15T01:51:13.733Z,99.99
2019-06-15T01:52:13.842Z,99.99
2019-06-15T01:53:13.605Z,99.99
2019-06-15T01:54:13.604Z,99.99
2019-06-15T01:55:20.808Z,99.99
2019-06-15T01:56:13.416Z,99.44
2019-06-15T01:57:13.292Z,99.25
2019-06-15T01:58:13.325Z,99.63
2019-06-15T01:59:13.152Z,99.15
2019-06-15T02:00:13.137Z,99.15
2019-06-15T02:01:13.001Z,98.77
2019-06-15T02:02:13.050Z,98.39
2019-06-15T02:03:12.864Z,97.71
2019-06-15T02:04:12.936Z,97.42
2019-06-15T02:05:12.720Z,97.71
2019-06-15T02:06:13.876Z,98.48
2019-06-15T02:07:12.577Z,98.39
2019-06-15T02:08:12.580Z,98.48
2019-06-15T02:09:12.418Z,98.00
2019-06-15T02:10:12.494Z,98.96
2019-06-15T02:11:12.277Z,98.86
2019-06-15T02:12:12.295Z,99.06
2019-06-15T02:13:12.337Z,99.35
2019-06-15T02:14:12.116Z,98.77
2019-06-15T02:15:11.992Z,99.15
2019-06-15T02:16:12.030Z,99.06
2019-06-15T02:17:11.830Z,98.00
2019-06-15T02:18:11.832Z,98.77
2019-06-15T02:19:11.687Z,98.48
2019-06-15T02:20:11.755Z,98.39
2019-06-15T02:21:11.551Z,98.29
2019-06-15T02:22:11.550Z,98.48
2019-06-15T02:23:11.408Z,98.48
2019-06-15T02:24:11.460Z,98.29
2019-06-15T02:25:11.250Z,98.10
2019-06-15T02:26:11.273Z,98.19
2019-06-15T02:27:11.102Z,97.91
2019-06-15T02:28:11.181Z,98.19
2019-06-15T02:29:10.959Z,98.68
2019-06-15T02:30:10.991Z,98.63
2019-06-15T02:31:10.811Z,97.38
2019-06-15T02:32:10.802Z,98.14
2019-06-15T02:33:10.680Z,98.72
2019-06-15T02:34:10.711Z,97.96
2019-06-15T02:35:10.518Z,96.51
2019-06-15T02:36:10.519Z,97.47
2019-06-15T02:37:10.379Z,98.91
2019-06-15T02:38:10.433Z,99.63
2019-06-15T02:39:10.233Z,99.99
2019-06-15T02:40:10.249Z,99.99
2019-06-15T02:41:10.077Z,99.99
2019-06-15T02:42:10.166Z,99.99
2019-06-15T02:43:10.020Z,99.99
2019-06-15T02:44:09.961Z,99.99
2019-06-15T02:45:09.806Z,99.99
2019-06-15T02:46:09.768Z,99.99
2019-06-15T02:47:09.645Z,99.97
2019-06-15T02:48:09.683Z,99.99
2019-06-15T02:49:09.489Z,99.99
2019-06-15T02:50:09.487Z,99.99
2019-06-15T02:51:09.354Z,99.99
2019-06-15T02:52:09.407Z,99.99
2019-06-15T02:53:09.199Z,99.82
2019-06-15T02:54:09.209Z,99.63
2019-06-15T02:55:09.055Z,99.44
2019-06-15T02:56:09.090Z,99.99
2019-06-15T02:57:08.905Z,99.99
2019-06-15T02:58:08.930Z,99.99
2019-06-15T02:59:08.764Z,99.99
2019-06-15T03:00:08.843Z,99.99
2019-06-15T03:01:08.622Z,99.99
2019-06-15T03:02:08.650Z,99.99
2019-06-15T03:03:08.465Z,99.99
2019-06-15T03:04:08.462Z,98.67
2019-06-15T03:05:08.322Z,98.96
2019-06-15T03:06:08.372Z,99.34
2019-06-15T03:07:08.173Z,99.58
2019-06-15T03:08:08.182Z,99.58
2019-06-15T03:09:08.026Z,99.87
2019-06-15T03:10:08.096Z,99.99
2019-06-15T03:11:07.880Z,99.99
2019-06-15T03:12:07.911Z,99.99
2019-06-15T03:13:07.729Z,99.99
2019-06-15T03:14:07.816Z,99.99
2019-06-15T03:15:07.599Z,99.99
2019-06-15T03:16:07.625Z,99.99
2019-06-15T03:17:07.438Z,99.99
2019-06-15T03:18:07.433Z,99.99
2019-06-15T03:19:07.292Z,99.99
2019-06-15T03:20:07.354Z,99.99
2019-06-15T03:21:07.143Z,99.99
2019-06-15T03:22:07.149Z,99.99
2019-06-15T03:23:06.996Z,99.99
2019-06-15T03:24:07.057Z,99.99
2019-06-15T03:25:06.846Z,99.99
2019-06-15T03:26:06.873Z,99.99
2019-06-15T03:27:06.707Z,99.99
2019-06-15T03:28:07.709Z,99.99
2019-06-15T03:29:06.561Z,99.99
2019-06-15T03:30:06.597Z,99.99
2019-06-15T03:31:06.417Z,99.99
2019-06-15T03:32:06.404Z,99.99
2019-06-15T03:33:06.268Z,99.99
2019-06-15T03:34:06.322Z,99.99
2019-06-15T03:35:06.112Z,99.99
2019-06-15T03:36:06.119Z,99.99
2019-06-15T03:37:06.030Z,99.99
2019-06-15T03:38:06.033Z,99.99
2019-06-15T03:39:06.118Z,99.99
2019-06-15T03:40:05.901Z,99.99
2019-06-15T03:41:06.251Z,99.99
2019-06-15T03:42:05.793Z,99.99
2019-06-15T03:43:05.560Z,99.99
2019-06-15T03:44:05.565Z,99.99
2019-06-15T03:45:05.380Z,99.99
2019-06-15T03:46:05.402Z,99.99
2019-06-15T03:47:05.225Z,99.99
2019-06-15T03:48:05.284Z,99.99
2019-06-15T03:49:05.086Z,99.99
2019-06-15T03:50:05.090Z,99.99
2019-06-15T03:51:04.936Z,99.99
2019-06-15T03:52:05.923Z,99.99
2019-06-15T03:53:04.783Z,99.99
2019-06-15T03:54:04.815Z,99.99
2019-06-15T03:55:04.721Z,99.99
2019-06-15T03:56:17.593Z,99.99
2019-06-15T03:57:04.497Z,99.99
2019-06-15T03:58:04.544Z,99.99
2019-06-15T03:59:04.353Z,99.99
2019-06-15T04:00:04.341Z,99.99
2019-06-15T04:01:04.192Z,99.99
2019-06-15T04:02:04.259Z,99.99
2019-06-15T04:03:04.050Z,99.99
2019-06-15T04:04:04.073Z,99.99
2019-06-15T04:05:03.902Z,99.99
2019-06-15T04:06:03.977Z,99.99
2019-06-15T04:07:03.755Z,99.99
2019-06-15T04:08:03.789Z,99.99
2019-06-15T04:09:03.607Z,99.99
2019-06-15T04:10:03.696Z,99.99
2019-06-15T04:11:03.458Z,99.99
2019-06-15T04:12:03.511Z,99.99
2019-06-15T04:13:03.315Z,99.99
2019-06-15T04:14:03.327Z,99.99
2019-06-15T04:15:03.190Z,99.99
2019-06-15T04:16:03.229Z,99.99
2019-06-15T04:17:03.016Z,99.99
2019-06-15T04:18:03.030Z,99.99
2019-06-15T04:19:03.098Z,99.99
2019-06-15T04:20:02.945Z,99.99
2019-06-15T04:21:02.720Z,99.99
2019-06-15T04:22:02.770Z,99.99
2019-06-15T04:23:02.574Z,99.99
2019-06-15T04:24:02.770Z,99.99
2019-06-15T04:25:02.595Z,99.99
2019-06-15T04:26:02.482Z,99.99
2019-06-15T04:27:02.287Z,99.99
2019-06-15T04:28:02.286Z,99.99
2019-06-15T04:29:02.127Z,99.99
2019-06-15T04:30:02.201Z,99.99
2019-06-15T04:31:02.003Z,99.99
2019-06-15T04:32:02.051Z,99.99
2019-06-15T04:33:01.832Z,99.99
2019-06-15T04:34:01.917Z,99.99
2019-06-15T04:35:01.695Z,99.99
2019-06-15T04:36:01.733Z,99.99
2019-06-15T04:37:01.662Z,99.99
2019-06-15T04:38:01.641Z,99.99
2019-06-15T04:39:01.395Z,99.99
2019-06-15T04:40:01.445Z,99.99
2019-06-15T04:41:01.769Z,99.99
2019-06-15T04:42:01.260Z,99.99
2019-06-15T04:43:01.182Z,99.99
2019-06-15T04:44:01.170Z,99.99
2019-06-15T04:45:00.955Z,99.99
2019-06-15T04:46:00.980Z,99.99
2019-06-15T04:47:00.809Z,99.99
2019-06-15T04:48:00.891Z,99.99
2019-06-15T04:49:00.660Z,99.99
2019-06-15T04:50:00.706Z,99.99
2019-06-15T04:51:00.510Z,99.99
2019-06-15T04:52:00.637Z,99.99
2019-06-15T04:53:00.362Z,99.99
2019-06-15T04:54:00.413Z,99.99
2019-06-15T04:55:00.235Z,99.99
2019-06-15T04:56:00.271Z,99.99
2019-06-15T04:57:00.133Z,99.99
2019-06-15T04:58:00.148Z,99.99
2019-06-15T04:58:59.926Z,99.99
2019-06-15T04:59:59.949Z,99.99
2019-06-15T05:00:59.782Z,99.99
2019-06-15T05:01:59.858Z,99.99
2019-06-15T05:02:59.629Z,99.99
2019-06-15T05:03:59.599Z,99.99
2019-06-15T05:04:59.491Z,99.99
2019-06-15T05:05:59.583Z,99.99
2019-06-15T05:06:59.343Z,99.99
2019-06-15T05:07:59.388Z,99.99
2019-06-15T05:08:59.193Z,99.99
2019-06-15T05:09:59.305Z,99.99
2019-06-15T05:11:00.058Z,99.99
2019-06-15T05:11:59.102Z,99.99
2019-06-15T05:12:58.895Z,99.99
2019-06-15T05:13:58.916Z,99.99
2019-06-15T05:14:58.757Z,99.99
2019-06-15T05:15:58.837Z,99.99
2019-06-15T05:16:58.602Z,99.99
2019-06-15T05:17:58.639Z,99.99
2019-06-15T05:18:58.456Z,99.99
2019-06-15T05:19:58.690Z,99.99
2019-06-15T05:20:58.311Z,98.58
2019-06-15T05:21:58.365Z,96.70
2019-06-15T05:22:58.168Z,93.00
2019-06-15T05:23:58.269Z,90.41
2019-06-15T05:24:58.016Z,90.31
2019-06-15T05:25:58.072Z,89.68
2019-06-15T05:27:06.272Z,87.66
2019-06-15T05:27:57.801Z,87.46
2019-06-15T05:28:57.797Z,87.12
2019-06-15T05:29:57.654Z,83.85
2019-06-15T05:30:57.711Z,84.14
2019-06-15T05:31:57.509Z,83.80
2019-06-15T05:32:57.617Z,83.89
2019-06-15T05:33:57.371Z,83.22
2019-06-15T05:34:57.673Z,82.16
2019-06-15T05:35:57.222Z,82.68
2019-06-15T05:36:57.232Z,81.72
2019-06-15T05:37:57.074Z,81.52
2019-06-15T05:38:57.151Z,80.46
2019-06-15T05:39:56.925Z,80.56
2019-06-15T05:40:56.953Z,80.27
2019-06-15T05:41:56.776Z,80.46
2019-06-15T05:42:56.859Z,78.96
2019-06-15T05:43:56.638Z,79.54
2019-06-15T05:44:56.675Z,79.25
2019-06-15T05:45:56.493Z,77.90
2019-06-15T05:46:56.587Z,78.29
2019-06-15T05:47:56.352Z,77.03
2019-06-15T05:48:56.390Z,76.75
2019-06-15T05:49:56.303Z,76.55
2019-06-15T05:50:58.604Z,78.09
2019-06-15T05:51:56.055Z,76.78
2019-06-15T05:52:56.115Z,76.68
2019-06-15T05:53:55.909Z,75.62
2019-06-15T05:54:56.032Z,75.05
2019-06-15T05:55:55.765Z,74.95
2019-06-15T05:56:55.840Z,75.05
2019-06-15T05:57:55.631Z,74.85
2019-06-15T05:58:55.644Z,74.51
2019-06-15T05:59:55.473Z,74.76
2019-06-15T06:00:55.565Z,74.79
2019-06-15T06:01:55.333Z,74.89
2019-06-15T06:02:55.319Z,74.12
2019-06-15T06:03:55.186Z,73.63
2019-06-15T06:04:55.282Z,73.63
2019-06-15T06:05:55.044Z,73.44
2019-06-15T06:06:55.079Z,73.15
2019-06-15T06:07:54.893Z,73.06
2019-06-15T06:08:54.997Z,72.67
2019-06-15T06:09:54.805Z,73.15
2019-06-15T06:10:54.807Z,73.06
2019-06-15T06:11:54.625Z,72.58
2019-06-15T06:12:54.715Z,72.38
2019-06-15T06:13:54.477Z,72.48
2019-06-15T06:14:54.522Z,72.00
2019-06-15T06:15:54.349Z,72.28
2019-06-15T06:16:54.435Z,72.09
2019-06-15T06:17:54.181Z,71.94
2019-06-15T06:18:54.242Z,72.22
2019-06-15T06:19:54.067Z,72.00
2019-06-15T06:20:54.297Z,71.55
2019-06-15T06:21:53.902Z,72.13
2019-06-15T06:22:53.980Z,72.03
2019-06-15T06:23:53.748Z,72.52
2019-06-15T06:24:53.672Z,71.84
2019-06-15T06:25:53.791Z,70.20
2019-06-15T06:26:53.531Z,69.71
2019-06-15T06:27:53.623Z,70.10
2019-06-15T06:28:57.163Z,70.39
2019-06-15T06:29:53.499Z,70.29
2019-06-15T06:30:53.246Z,71.64
2019-06-15T06:31:53.316Z,71.55
2019-06-15T06:32:53.111Z,71.16
2019-06-15T06:33:53.224Z,70.78
2019-06-15T06:34:53.051Z,70.20
2019-06-15T06:35:53.034Z,70.00
2019-06-15T06:36:52.823Z,69.71
2019-06-15T06:37:52.946Z,69.42
2019-06-15T06:38:52.678Z,69.13
2019-06-15T06:39:52.752Z,69.71
2019-06-15T06:40:52.541Z,69.81
2019-06-15T06:41:52.561Z,69.71
2019-06-15T06:42:52.396Z,70.20
2019-06-15T06:43:52.477Z,69.62
2019-06-15T06:44:52.252Z,70.00
2019-06-15T06:45:52.284Z,71.26
2019-06-15T06:46:52.109Z,69.62
2019-06-15T06:47:52.208Z,69.52
2019-06-15T06:48:51.966Z,69.81
2019-06-15T06:49:52.012Z,70.00
2019-06-15T06:50:51.822Z,70.58
2019-06-15T06:51:51.915Z,70.78
2019-06-15T06:52:51.679Z,71.36
2019-06-15T06:53:51.725Z,70.78
2019-06-15T06:54:51.551Z,71.88
2019-06-15T06:55:51.628Z,70.58
2019-06-15T06:56:51.400Z,70.68
2019-06-15T06:57:56.078Z,71.26
2019-06-15T06:58:51.252Z,71.45
2019-06-15T06:59:51.358Z,71.74
2019-06-15T07:00:51.110Z,70.78
2019-06-15T07:01:51.045Z,70.87
2019-06-15T07:02:51.065Z,70.48
2019-06-15T07:03:50.902Z,70.68
2019-06-15T07:04:50.982Z,71.55
2019-06-15T07:05:50.760Z,70.39
2019-06-15T07:06:50.787Z,71.64
2019-06-15T07:07:50.744Z,71.42
2019-06-15T07:08:50.708Z,71.45
2019-06-15T07:09:50.477Z,72.71
2019-06-15T07:10:50.513Z,72.52
2019-06-15T07:11:50.617Z,71.55
2019-06-15T07:12:50.263Z,71.64
2019-06-15T07:13:50.185Z,71.94
2019-06-15T07:14:50.111Z,71.64
2019-06-15T07:15:50.042Z,72.22
2019-06-15T07:16:50.140Z,71.88
2019-06-15T07:17:49.904Z,70.32
2019-06-15T07:18:50.055Z,70.32
2019-06-15T07:19:50.009Z,70.14
2019-06-15T07:20:49.699Z,70.62
2019-06-15T07:21:49.766Z,70.62
2019-06-15T07:22:49.661Z,69.36
2019-06-15T07:23:49.677Z,68.88
2019-06-15T07:24:49.404Z,69.56
2019-06-15T07:25:49.487Z,69.46
2019-06-15T07:26:49.292Z,68.78
2019-06-15T07:27:49.407Z,69.36
2019-06-15T07:28:49.119Z,68.82
2019-06-15T07:29:49.208Z,69.10
2019-06-15T07:30:48.983Z,69.30
2019-06-15T07:31:49.021Z,68.91
2019-06-15T07:32:48.842Z,67.36
2019-06-15T07:33:48.925Z,67.27
2019-06-15T07:34:48.700Z,66.59
2019-06-15T07:35:48.739Z,67.27
2019-06-15T07:36:48.563Z,68.17
2019-06-15T07:37:48.492Z,68.95
2019-06-15T07:38:48.423Z,68.37
2019-06-15T07:39:48.464Z,66.75
2019-06-15T07:40:48.274Z,67.05
2019-06-15T07:41:48.222Z,67.33
2019-06-15T07:42:48.146Z,67.95
2019-06-15T07:43:48.068Z,65.98
2019-06-15T07:44:48.193Z,65.53
2019-06-15T07:45:47.927Z,65.14
2019-06-15T07:46:48.003Z,66.02
2019-06-15T07:47:47.790Z,66.30
2019-06-15T07:48:47.917Z,66.30
2019-06-15T07:49:47.643Z,66.20
2019-06-15T07:50:48.735Z,65.85
2019-06-15T07:51:47.507Z,64.59
2019-06-15T07:52:47.628Z,63.92
2019-06-15T07:53:47.366Z,63.72
2019-06-15T07:54:47.435Z,63.62
2019-06-15T07:55:47.231Z,65.37
2019-06-15T07:56:47.349Z,66.37
2019-06-15T07:57:47.087Z,66.56
2019-06-15T07:58:47.157Z,64.53
2019-06-15T07:59:46.979Z,61.04
2019-06-15T08:00:47.076Z,61.91
2019-06-15T08:01:46.814Z,62.30
2019-06-15T08:02:46.876Z,61.91
2019-06-15T08:03:46.681Z,62.20
2019-06-15T08:04:46.788Z,62.69
2019-06-15T08:05:46.535Z,62.69
2019-06-15T08:06:46.601Z,62.69
2019-06-15T08:07:46.394Z,62.98
2019-06-15T08:08:46.508Z,61.52
2019-06-15T08:09:46.266Z,62.98
2019-06-15T08:10:46.329Z,61.04
2019-06-15T08:11:46.119Z,61.85
2019-06-15T08:12:46.232Z,61.36
2019-06-15T08:13:45.983Z,60.97
2019-06-15T08:14:46.040Z,60.39
2019-06-15T08:15:45.843Z,60.42
2019-06-15T08:16:45.955Z,59.06
2019-06-15T08:17:45.867Z,60.00
2019-06-15T08:18:45.761Z,60.78
2019-06-15T08:19:45.564Z,60.97
2019-06-15T08:20:45.675Z,60.49
2019-06-15T08:21:45.502Z,61.29
2019-06-15T08:22:45.486Z,60.61
2019-06-15T08:23:45.294Z,60.23
2019-06-15T08:24:45.393Z,60.20
2019-06-15T08:25:45.154Z,59.06
2019-06-15T08:26:45.305Z,59.74
2019-06-15T08:27:45.020Z,60.71
2019-06-15T08:28:45.111Z,59.45
2019-06-15T08:29:45.038Z,57.61
2019-06-15T08:30:45.028Z,57.09
2019-06-15T08:31:44.746Z,58.65
2019-06-15T08:32:44.833Z,59.52
2019-06-15T08:33:44.610Z,59.23
2019-06-15T08:34:44.946Z,57.29
2019-06-15T08:35:44.477Z,57.19
2019-06-15T08:36:44.557Z,57.58
2019-06-15T08:37:44.339Z,57.39
2019-06-15T08:38:45.487Z,58.74
2019-06-15T08:39:44.203Z,58.26
2019-06-15T08:40:45.449Z,58.36
2019-06-15T08:41:44.065Z,59.64
2019-06-15T08:42:44.196Z,59.16
2019-06-15T08:43:43.935Z,59.06
2019-06-15T08:44:43.992Z,58.61
2019-06-15T08:45:43.792Z,58.03
2019-06-15T08:46:43.729Z,57.34
2019-06-15T08:47:44.832Z,57.93
2019-06-15T08:48:43.584Z,57.54
2019-06-15T08:49:43.530Z,56.18
2019-06-15T08:50:50.484Z,55.69
2019-06-15T08:51:43.995Z,56.18
2019-06-15T08:52:44.540Z,57.76
2019-06-15T08:53:44.629Z,55.69
2019-06-15T08:54:43.342Z,55.89
2019-06-15T08:55:43.110Z,55.89
2019-06-15T08:56:43.263Z,55.87
2019-06-15T08:57:42.983Z,56.67
2019-06-15T08:58:54.769Z,57.44
2019-06-15T08:59:42.838Z,56.37
2019-06-15T09:00:42.977Z,56.67
2019-06-15T09:01:42.707Z,57.32
2019-06-15T09:02:42.788Z,57.22
2019-06-15T09:03:42.570Z,58.00
2019-06-15T09:04:42.701Z,58.39
2019-06-15T09:05:42.436Z,58.48
2019-06-15T09:06:42.503Z,58.67
2019-06-15T09:07:42.308Z,58.48
2019-06-15T09:08:42.417Z,59.26
2019-06-15T09:09:42.172Z,58.67
2019-06-15T09:10:42.225Z,57.12
2019-06-15T09:11:42.042Z,57.03
2019-06-15T09:12:42.138Z,57.42
2019-06-15T09:13:41.898Z,58.58
2019-06-15T09:14:42.050Z,60.03
2019-06-15T09:15:41.766Z,59.77
2019-06-15T09:16:41.862Z,57.64
2019-06-15T09:17:41.641Z,56.50
2019-06-15T09:18:41.771Z,57.18
2019-06-15T09:19:41.494Z,57.06
2019-06-15T09:20:41.573Z,56.60
2019-06-15T09:21:41.366Z,57.18
2019-06-15T09:22:41.489Z,57.57
2019-06-15T09:23:41.219Z,57.57
2019-06-15T09:24:41.299Z,58.28
2019-06-15T09:25:41.092Z,56.72
2019-06-15T09:26:41.212Z,56.34
2019-06-15T09:27:40.964Z,57.31
2019-06-15T09:28:41.017Z,57.11
2019-06-15T09:29:40.815Z,56.92
2019-06-15T09:30:40.931Z,56.72
2019-06-15T09:31:40.685Z,55.78
2019-06-15T09:32:40.847Z,54.71
2019-06-15T09:33:40.549Z,55.19
2019-06-15T09:34:40.651Z,55.65
2019-06-15T09:35:40.425Z,55.39
2019-06-15T09:36:40.353Z,54.61
2019-06-15T09:37:40.366Z,54.71
2019-06-15T09:38:40.218Z,56.85
2019-06-15T09:39:40.149Z,55.29
2019-06-15T09:40:40.287Z,54.80
2019-06-15T09:41:40.020Z,55.88
2019-06-15T09:42:40.155Z,56.07
2019-06-15T09:43:40.014Z,55.98
2019-06-15T09:44:40.011Z,56.16
2019-06-15T09:45:39.750Z,57.26
2019-06-15T09:46:39.817Z,58.43
2019-06-15T09:47:39.620Z,54.74
2019-06-15T09:48:39.548Z,53.96
2019-06-15T09:49:39.630Z,53.77
2019-06-15T09:50:39.416Z,53.86
2019-06-15T09:51:39.542Z,55.13
2019-06-15T09:52:39.287Z,55.71
2019-06-15T09:53:39.423Z,55.51
2019-06-15T09:54:39.149Z,54.44
2019-06-15T09:55:39.080Z,53.96
2019-06-15T09:56:39.162Z,54.35
2019-06-15T09:57:38.952Z,55.80
2019-06-15T09:58:39.071Z,54.35
2019-06-15T09:59:38.812Z,53.18
2019-06-15T10:00:38.886Z,54.03
2019-06-15T10:01:38.691Z,54.03
2019-06-15T10:02:38.705Z,53.45
2019-06-15T10:03:38.558Z,52.40
2019-06-15T10:04:38.609Z,54.03
2019-06-15T10:05:38.421Z,53.45
2019-06-15T10:06:38.360Z,54.42
2019-06-15T10:07:38.279Z,54.52
2019-06-15T10:08:38.326Z,54.61
2019-06-15T10:09:38.148Z,55.68
2019-06-15T10:10:38.137Z,55.68
2019-06-15T10:11:38.014Z,55.00
2019-06-15T10:12:38.049Z,54.61
2019-06-15T10:13:37.885Z,56.36
2019-06-15T10:14:37.859Z,55.85
2019-06-15T10:15:37.750Z,54.61
2019-06-15T10:16:37.772Z,53.42
2019-06-15T10:17:37.622Z,53.81
2019-06-15T10:18:38.939Z,53.42
2019-06-15T10:19:37.594Z,53.49
2019-06-15T10:20:37.487Z,54.36
2019-06-15T10:21:37.393Z,54.66
2019-06-15T10:22:38.206Z,54.94
2019-06-15T10:23:37.307Z,55.63
2019-06-15T10:24:37.158Z,55.82
2019-06-15T10:25:37.219Z,54.94
2019-06-15T10:26:37.016Z,56.21
2019-06-15T10:28:36.886Z,55.02
2019-06-15T10:29:42.044Z,55.99
2019-06-15T10:30:36.755Z,56.86
2019-06-15T10:31:36.746Z,56.74
2019-06-15T10:32:36.624Z,57.32
2019-06-15T10:33:36.655Z,57.22
2019-06-15T10:34:36.543Z,56.25
2019-06-15T10:35:36.431Z,57.42
2019-06-15T10:36:36.472Z,56.90
2019-06-15T10:37:36.296Z,56.81
2019-06-15T10:38:36.283Z,57.29
2019-06-15T10:39:36.147Z,57.03
2019-06-15T10:40:36.190Z,57.03
2019-06-15T10:41:36.021Z,57.22
2019-06-15T10:42:36.001Z,57.12
2019-06-15T10:43:35.887Z,57.12
2019-06-15T10:44:35.933Z,56.35
2019-06-15T10:45:35.748Z,56.41
2019-06-15T10:46:35.724Z,57.19
2019-06-15T10:47:35.610Z,57.29
2019-06-15T10:48:35.545Z,58.06
2019-06-15T10:49:35.540Z,58.45
2019-06-15T10:50:35.414Z,58.26
2019-06-15T10:51:35.345Z,58.26
2019-06-15T10:52:35.355Z,58.16
2019-06-15T10:53:35.218Z,57.29
2019-06-15T10:54:35.266Z,57.68
2019-06-15T10:55:35.079Z,58.55
2019-06-15T10:56:35.077Z,58.36
2019-06-15T10:57:34.939Z,58.74
2019-06-15T10:58:34.988Z,58.65
2019-06-15T10:59:35.357Z,60.10
2019-06-15T11:00:34.794Z,60.20
2019-06-15T11:01:34.673Z,58.74
2019-06-15T11:02:34.726Z,57.97
2019-06-15T11:03:34.535Z,58.26
2019-06-15T11:04:34.525Z,57.48
2019-06-15T11:05:34.403Z,58.42
2019-06-15T11:06:34.431Z,58.42
2019-06-15T11:07:34.273Z,58.72
2019-06-15T11:08:34.267Z,58.91
2019-06-15T11:09:34.130Z,58.94
2019-06-15T11:10:34.156Z,59.71
2019-06-15T11:11:34.025Z,58.65
2019-06-15T11:12:45.875Z,59.81
2019-06-15T11:13:33.866Z,59.81
2019-06-15T11:14:33.801Z,60.30
2019-06-15T11:15:33.775Z,60.81
2019-06-15T11:16:33.652Z,60.35
2019-06-15T11:17:33.688Z,59.58
2019-06-15T11:18:33.534Z,57.54
2019-06-15T11:19:33.675Z,56.76
2019-06-15T11:20:33.386Z,58.64
2019-06-15T11:21:33.405Z,59.31
2019-06-15T11:22:33.311Z,56.40
2019-06-15T11:23:33.316Z,54.56
2019-06-15T11:24:33.126Z,54.66
2019-06-15T11:25:33.047Z,56.21
2019-06-15T11:26:33.028Z,57.37
2019-06-15T11:27:32.915Z,56.89
2019-06-15T11:28:32.944Z,56.72
2019-06-15T11:29:32.779Z,55.75
2019-06-15T11:30:32.850Z,55.78
2019-06-15T11:31:32.645Z,55.03
2019-06-15T11:32:32.574Z,53.64
2019-06-15T11:33:32.568Z,54.42
2019-06-15T11:34:32.439Z,54.42
2019-06-15T11:35:32.494Z,53.64
2019-06-15T11:36:32.315Z,53.35
2019-06-15T11:37:32.289Z,54.03
2019-06-15T11:38:32.174Z,54.32
2019-06-15T11:39:32.194Z,54.52
2019-06-15T11:40:32.053Z,52.06
2019-06-15T11:41:32.111Z,52.45
2019-06-15T11:42:31.948Z,52.33
2019-06-15T11:43:31.846Z,53.00
2019-06-15T11:44:31.776Z,54.66
2019-06-15T11:45:31.836Z,54.46
2019-06-15T11:46:31.643Z,54.56
2019-06-15T11:47:31.595Z,56.40
2019-06-15T11:48:31.510Z,54.75
2019-06-15T11:49:31.549Z,55.92
2019-06-15T11:50:31.398Z,54.94
2019-06-15T11:51:31.359Z,55.43
2019-06-15T11:52:31.236Z,54.66
2019-06-15T11:53:31.270Z,54.56
2019-06-15T11:54:31.111Z,54.36
2019-06-15T11:55:39.537Z,54.36
2019-06-15T11:56:30.969Z,54.56
2019-06-15T11:57:30.991Z,54.39
2019-06-15T11:58:30.837Z,54.68
2019-06-15T11:59:30.904Z,53.69
2019-06-15T12:00:31.804Z,54.07
2019-06-15T12:01:30.713Z,54.63
2019-06-15T12:02:30.576Z,54.72
2019-06-15T12:03:30.627Z,55.31
2019-06-15T12:04:30.437Z,55.79
2019-06-15T12:05:30.433Z,55.60
2019-06-15T12:06:30.307Z,55.99
2019-06-15T12:07:30.345Z,55.89
2019-06-15T12:08:30.335Z,54.66
2019-06-15T12:09:30.098Z,54.44
2019-06-15T12:10:30.038Z,53.95
2019-06-15T12:11:30.063Z,53.97
2019-06-15T12:12:29.903Z,53.85
2019-06-15T12:13:29.837Z,54.63
2019-06-15T12:14:29.882Z,54.66
2019-06-15T12:15:29.697Z,54.63
2019-06-15T12:16:29.690Z,55.60
2019-06-15T12:17:29.571Z,54.82
2019-06-15T12:18:29.601Z,54.72
2019-06-15T12:19:29.432Z,54.80
2019-06-15T12:20:29.364Z,55.28
2019-06-15T12:21:29.421Z,55.77
2019-06-15T12:22:29.248Z,54.50
2019-06-15T12:23:29.232Z,54.99
2019-06-15T12:24:29.092Z,55.28
2019-06-15T12:25:29.140Z,54.48
2019-06-15T12:26:28.966Z,55.44
2019-06-15T12:27:28.945Z,57.19
2019-06-15T12:28:28.832Z,56.54
2019-06-15T12:29:28.859Z,57.22
2019-06-15T12:30:28.698Z,57.51
2019-06-15T12:31:28.768Z,57.90
2019-06-15T12:32:28.554Z,58.39
2019-06-15T12:33:28.582Z,58.00
2019-06-15T12:34:28.424Z,56.45
2019-06-15T12:35:28.492Z,55.47
2019-06-15T12:36:28.300Z,56.67
2019-06-15T12:37:28.303Z,58.77
2019-06-15T12:38:28.150Z,56.96
2019-06-15T12:39:28.085Z,55.28
2019-06-15T12:40:28.142Z,55.31
2019-06-15T12:41:27.949Z,56.96
2019-06-15T12:42:28.041Z,56.86
2019-06-15T12:43:27.815Z,56.76
2019-06-15T12:44:27.835Z,57.06
2019-06-15T12:45:27.677Z,56.21
2019-06-15T12:46:27.749Z,56.50
2019-06-15T12:47:27.549Z,55.89
2019-06-15T12:48:27.557Z,55.50
2019-06-15T12:49:27.410Z,55.04
2019-06-15T12:50:27.466Z,54.66
2019-06-15T12:51:27.276Z,54.36
2019-06-15T12:52:27.285Z,54.24